Flight Track Log - Related Links

Times and Time Zones

All times are in EDT time to prevent confusion due to time zone crossing. See the RPA3228 flight status page for this flight to view local times or setup timezone preferences in your user account.

Time Position Orientation Groundspeed Altitude Reporting Facility
EDT Latitude Longitude Course Direction KTS MPH feet Rate Location/Type
Sun 08:14:32 AM 32.9625 -80.0156 13° North 164 189 3,300  Level Jacksonville Center
Sun 08:15:32 AM 33.0289 -79.9961 14° North 197 227 5,700 2,900 Climbing Jacksonville Center
Sun 08:16:32 AM 33.1078 -79.9739 13° North 245 282 9,100 2,950 Climbing Jacksonville Center
Sun 08:17:32 AM 33.1839 -79.9292 26° Northeast 283 326 11,600 2,550 Climbing Jacksonville Center
Sun 08:18:00 AM 33.4339 -79.8699 North  Level FlightAware Approximate
Sun 08:18:32 AM 33.2703 -79.8767 27° Northeast 313 360 14,200  Level Jacksonville Center
Sun 08:19:00 AM 33.5267 -79.8448 13° North  Level FlightAware Approximate
Sun 08:19:32 AM 33.3589 -79.8239 26° Northeast 339 390 16,800  Level Jacksonville Center
Sun 08:20:32 AM 33.4514 -79.7658 28° Northeast 351 404 18,600 2,350 Climbing Jacksonville Center
Sun 08:21:32 AM 33.5458 -79.7078 27° Northeast 369 425 21,500 2,400 Climbing Jacksonville Center
Sun 08:22:32 AM 33.6442 -79.7142 357° North 353 406 23,400 2,000 Climbing Jacksonville Center
Sun 08:23:32 AM 33.7269 -79.7736 329° Northwest 331 381 25,500 1,950 Climbing Jacksonville Center
Sun 08:24:32 AM 33.8181 -79.8328 332° Northwest 343 395 27,300 1,667 Climbing Jacksonville Center
Sun 08:26:32 AM 34.0022 -79.9417 334° Northwest 363 418 30,500 1,233 Climbing Jacksonville Center
Sun 08:27:32 AM 34.0964 -79.8608 35° Northeast 333 383 31,000 250 Climbing Jacksonville Center
Sun 08:28:32 AM 34.1344 -79.7139 73° East 346 398 31,000 100 Level Jacksonville Center
Sun 08:29:32 AM 34.1744 -79.5719 71° East 395 455 31,200 650 Climbing Jacksonville Center
Sun 08:30:32 AM 34.2144 -79.4247 72° East 444 511 32,300 574 Climbing Jacksonville Center
Sun 08:32:40 AM 34.3742 -79.2000 49° Northeast 399 459 33,000 223 Climbing Washington Center
Sun 08:33:40 AM 34.4822 -79.1369 26° Northeast 404 465 33,000  Level Washington Center
Sun 08:34:40 AM 34.5864 -79.0783 25° Northeast 409 471 33,000  Level Washington Center
Sun 08:35:40 AM 34.6967 -79.0147 25° Northeast 415 478 33,000  Level Washington Center
Sun 08:36:40 AM 34.8089 -78.9514 25° Northeast 429 494 33,000 -50 Level Washington Center
Sun 08:37:40 AM 34.9214 -78.8850 26° Northeast 434 499 32,900 -550 Descending Washington Center
Sun 08:38:40 AM 35.0339 -78.8186 26° Northeast 434 499 31,900 -950 Descending Washington Center
Sun 08:39:40 AM 35.1483 -78.7519 25° Northeast 434 499 31,000 -450 Descending Washington Center
Sun 08:40:40 AM 35.2606 -78.6853 26° Northeast 439 505 31,000  Level Washington Center
Sun 08:41:40 AM 35.3667 -78.6231 26° Northeast 450 518 31,000  Level Washington Center
Sun 08:42:40 AM 35.4894 -78.5511 26° Northeast 450 518 31,000  Level Washington Center
Sun 08:43:40 AM 35.5889 -78.4883 27° Northeast 450 518 31,000 -400 Level Washington Center
Sun 08:44:40 AM 35.7094 -78.4211 24° Northeast 450 518 30,200 -850 Descending Washington Center
Sun 08:45:40 AM 35.8322 -78.3486 26° Northeast 467 537 29,300 -1,000 Descending Washington Center
Sun 08:46:40 AM 35.9550 -78.2733 26° Northeast 473 544 28,200 -1,050 Descending Washington Center
Sun 08:47:40 AM 36.0756 -78.2031 25° Northeast 473 544 27,200 -600 Descending Washington Center
Sun 08:48:40 AM 36.1917 -78.1297 27° Northeast 467 537 27,000 -100 Descending Washington Center
Sun 08:49:40 AM 36.3122 -78.0589 25° Northeast 467 537 27,000  Level Washington Center
Sun 08:50:40 AM 36.4306 -77.9878 26° Northeast 467 537 27,000  Level Washington Center
Sun 08:51:40 AM 36.5467 -77.9136 27° Northeast 472 543 27,000 -300 Level Washington Center
Sun 08:52:40 AM 36.6650 -77.8394 27° Northeast 472 543 26,400 -800 Descending Washington Center
Sun 08:53:40 AM 36.7831 -77.7678 26° Northeast 472 543 25,400 -700 Descending Washington Center
Sun 08:54:40 AM 36.8992 -77.6983 26° Northeast 467 537 25,000 -350 Descending Washington Center
Sun 08:55:40 AM 37.0086 -77.6311 26° Northeast 459 528 24,700 -650 Descending Washington Center
Sun 08:56:40 AM 37.1200 -77.5844 18° North 438 504 23,700 -1,000 Descending Washington Center
Sun 08:57:40 AM 37.2333 -77.5456 15° North 426 490 22,700 -850 Descending Washington Center
Sun 08:58:40 AM 37.3425 -77.5042 17° North 421 484 22,000 -350 Descending Washington Center
Sun 08:59:40 AM 37.4494 -77.4650 16° North 415 478 22,000 -250 Level Washington Center
Sun 09:00:40 AM 37.5692 -77.4233 15° North 405 466 21,500 -700 Descending Washington Center
Sun 09:01:40 AM 37.6822 -77.3814 16° North 405 466 20,600 -950 Descending Washington Center
Sun 09:02:40 AM 37.8019 -77.3369 16° North 424 488 19,600 -1,250 Descending Washington Center
Sun 09:03:40 AM 37.9172 -77.2947 16° North 424 488 18,100 -2,100 Descending Washington Center
Sun 09:04:40 AM 38.0261 -77.2525 17° North 419 482 15,400 -2,350 Descending Washington Center
Sun 09:05:40 AM 38.1289 -77.2206 14° North 402 463 13,400 -2,000 Descending Washington Center
Sun 09:06:40 AM 38.2294 -77.1831 16° North 382 440 11,400 -1,800 Descending Washington Center
Sun 09:07:40 AM 38.3258 -77.1533 14° North 369 425 9,800 -1,300 Descending Washington Center
Sun 09:08:40 AM 38.3989 -77.1361 10° North 329 379 8,800 -1,200 Descending Washington Center
Sun 09:09:40 AM 38.4742 -77.1192 10° North 296 341 7,400 -1,600 Descending Washington Center
Sun 09:10:40 AM 38.5472 -77.1075 North 271 312 5,600 -1,450 Descending Washington Center
Sun 09:11:40 AM 38.6103 -77.0847 16° North 251 289 4,500 -1,143 Descending Washington Center
Sun 09:12:04 AM 38.6500 -77.0667 20° North 228 262 4,000 -1,077 Descending Potomac TRACON
Sun 09:12:58 AM 38.7000 -77.0500 15° North 210 242 3,100 -991 Descending Potomac TRACON
Sun 09:13:59 AM 38.7333 -77.0333 21° North 150 173 2,100 -843 Descending Potomac TRACON
Sun 09:14:59 AM 38.7833 -77.0333 360° North 132 152 1,400 -700 Descending Potomac TRACON

Login

Don't have an account? Register now (free) for customized features, flight alerts, and more!